RYS665 EPKT-LCPH
Flight info
| Callsign | RYS665 |
|---|---|
| Flight time | N/A |
| Altitude | 37000 |
| Route | REGTO DCT RAZEC DCT KEKED DCT VERIG DCT LOMOS DCT PIDOR DCT NIKTI DCT LMO DCT RIKSO UN127 IMR UG80 BANRO DCT RDS UM601 EVENO DCT DASNI DCT TOBAL |
| Aircraft | B738/M-SDFGIJ1LRWY/SB1 |
Departure
| Time | N/A |
|---|---|
| Airport | Katowice Wojciech Korfanty International Airport (EPKT) |
Arrival
| Time | 2026-05-07 02:47 |
|---|---|
| Airport | Paphos International Airport (LCPH) |
| Time | Latitude | Longitude | Altitude | Speed | Heading |
|---|---|---|---|---|---|
| 2026-05-07 02:22 | 35.80132 | 30.12531 | 36314 ft | 463 kts | 105° |
| 2026-05-07 02:22 | 35.79184 | 30.16350 | 35921 ft | 460 kts | 104° |
| 2026-05-07 02:23 | 35.78253 | 30.20097 | 35557 ft | 458 kts | 104° |
| 2026-05-07 02:23 | 35.77333 | 30.23782 | 35202 ft | 456 kts | 104° |
| 2026-05-07 02:23 | 35.76403 | 30.27482 | 34839 ft | 453 kts | 104° |
| 2026-05-07 02:23 | 35.75463 | 30.31205 | 34471 ft | 451 kts | 105° |
| 2026-05-07 02:24 | 35.74536 | 30.34864 | 34071 ft | 449 kts | 104° |
| 2026-05-07 02:24 | 35.73605 | 30.38536 | 33633 ft | 447 kts | 104° |
| 2026-05-07 02:24 | 35.72687 | 30.42146 | 33200 ft | 445 kts | 104° |
| 2026-05-07 02:24 | 35.71767 | 30.45755 | 32765 ft | 443 kts | 104° |
| 2026-05-07 02:25 | 35.70853 | 30.49340 | 32331 ft | 442 kts | 104° |
| 2026-05-07 02:25 | 35.69938 | 30.52926 | 31899 ft | 440 kts | 104° |
| 2026-05-07 02:25 | 35.69014 | 30.56539 | 31463 ft | 438 kts | 104° |
| 2026-05-07 02:25 | 35.68107 | 30.60076 | 31033 ft | 436 kts | 103° |
| 2026-05-07 02:26 | 35.67204 | 30.63598 | 30610 ft | 434 kts | 103° |
| 2026-05-07 02:26 | 35.66295 | 30.67131 | 30187 ft | 433 kts | 104° |
| 2026-05-07 02:26 | 35.65387 | 30.70655 | 29763 ft | 431 kts | 104° |
| 2026-05-07 02:26 | 35.64489 | 30.74132 | 29343 ft | 429 kts | 104° |
| 2026-05-07 02:27 | 35.63588 | 30.77618 | 28919 ft | 427 kts | 104° |
| 2026-05-07 02:27 | 35.62680 | 30.81056 | 28502 ft | 426 kts | 106° |
| 2026-05-07 02:27 | 35.61610 | 30.84466 | 28077 ft | 426 kts | 111° |
| 2026-05-07 02:27 | 35.60289 | 30.87720 | 27608 ft | 427 kts | 117° |
| 2026-05-07 02:28 | 35.58775 | 30.90819 | 27142 ft | 427 kts | 120° |
| 2026-05-07 02:28 | 35.57161 | 30.93860 | 26673 ft | 427 kts | 122° |
| 2026-05-07 02:28 | 35.55490 | 30.96912 | 26195 ft | 426 kts | 122° |
| 2026-05-07 02:28 | 35.53852 | 30.99885 | 25711 ft | 424 kts | 122° |
| 2026-05-07 02:29 | 35.52197 | 31.02894 | 25196 ft | 420 kts | 122° |
| 2026-05-07 02:29 | 35.50594 | 31.05821 | 24677 ft | 416 kts | 122° |
| 2026-05-07 02:29 | 35.48990 | 31.08765 | 24162 ft | 413 kts | 122° |
| 2026-05-07 02:29 | 35.47404 | 31.11686 | 23644 ft | 409 kts | 122° |
| 2026-05-07 02:30 | 35.45841 | 31.14577 | 23134 ft | 406 kts | 121° |
| 2026-05-07 02:30 | 35.44288 | 31.17450 | 22636 ft | 403 kts | 121° |
| 2026-05-07 02:30 | 35.42746 | 31.20305 | 22136 ft | 399 kts | 122° |
| 2026-05-07 02:30 | 35.41219 | 31.23135 | 21628 ft | 396 kts | 122° |
| 2026-05-07 02:31 | 35.39716 | 31.25918 | 21136 ft | 393 kts | 122° |
| 2026-05-07 02:31 | 35.38214 | 31.28697 | 20639 ft | 390 kts | 122° |
| 2026-05-07 02:31 | 35.36731 | 31.31440 | 20142 ft | 388 kts | 122° |
| 2026-05-07 02:31 | 35.35254 | 31.34174 | 19644 ft | 385 kts | 122° |
| 2026-05-07 02:32 | 35.33772 | 31.36915 | 19145 ft | 382 kts | 122° |
| 2026-05-07 02:32 | 35.32325 | 31.39586 | 18655 ft | 379 kts | 122° |
| 2026-05-07 02:32 | 35.30875 | 31.42260 | 18159 ft | 376 kts | 122° |
| 2026-05-07 02:32 | 35.29434 | 31.44915 | 17667 ft | 373 kts | 122° |
| 2026-05-07 02:33 | 35.28003 | 31.47556 | 17178 ft | 371 kts | 122° |
| 2026-05-07 02:33 | 35.26591 | 31.50153 | 16683 ft | 368 kts | 122° |
| 2026-05-07 02:33 | 35.25171 | 31.52766 | 16054 ft | 370 kts | 122° |
| 2026-05-07 02:33 | 35.23733 | 31.55409 | 15414 ft | 371 kts | 122° |
| 2026-05-07 02:34 | 35.22308 | 31.58027 | 14778 ft | 372 kts | 122° |
| 2026-05-07 02:34 | 35.20879 | 31.60648 | 14140 ft | 371 kts | 122° |
| 2026-05-07 02:34 | 35.19464 | 31.63241 | 13509 ft | 371 kts | 122° |
| 2026-05-07 02:34 | 35.18023 | 31.65880 | 12870 ft | 370 kts | 122° |
| 2026-05-07 02:35 | 35.16614 | 31.68460 | 12390 ft | 364 kts | 122° |
| 2026-05-07 02:35 | 35.15221 | 31.71006 | 12107 ft | 352 kts | 122° |
| 2026-05-07 02:35 | 35.13895 | 31.73426 | 11985 ft | 339 kts | 122° |
| 2026-05-07 02:35 | 35.12597 | 31.75795 | 11841 ft | 330 kts | 122° |
| 2026-05-07 02:36 | 35.11335 | 31.78098 | 11694 ft | 322 kts | 122° |
| 2026-05-07 02:36 | 35.10102 | 31.80352 | 11341 ft | 322 kts | 122° |
| 2026-05-07 02:36 | 35.08854 | 31.82634 | 10907 ft | 323 kts | 122° |
| 2026-05-07 02:36 | 35.07617 | 31.84893 | 10498 ft | 319 kts | 122° |
| 2026-05-07 02:37 | 35.06385 | 31.87137 | 10080 ft | 315 kts | 122° |
| 2026-05-07 02:37 | 35.05183 | 31.89323 | 9651 ft | 312 kts | 122° |
| 2026-05-07 02:37 | 35.03973 | 31.91522 | 9158 ft | 311 kts | 122° |
| 2026-05-07 02:37 | 35.02770 | 31.93711 | 8664 ft | 310 kts | 122° |
| 2026-05-07 02:38 | 35.01591 | 31.95853 | 8174 ft | 308 kts | 122° |
| 2026-05-07 02:38 | 35.00405 | 31.98008 | 7774 ft | 302 kts | 122° |
| 2026-05-07 02:38 | 34.99243 | 32.00115 | 7398 ft | 296 kts | 122° |
| 2026-05-07 02:38 | 34.98103 | 32.02180 | 7138 ft | 286 kts | 121° |
| 2026-05-07 02:39 | 34.97026 | 32.04131 | 7101 ft | 269 kts | 122° |
| 2026-05-07 02:39 | 34.96014 | 32.05964 | 7071 ft | 253 kts | 121° |
| 2026-05-07 02:39 | 34.95066 | 32.07681 | 7028 ft | 239 kts | 121° |
| 2026-05-07 02:39 | 34.94144 | 32.09353 | 6837 ft | 233 kts | 121° |
| 2026-05-07 02:40 | 34.93243 | 32.10989 | 6480 ft | 235 kts | 120° |
| 2026-05-07 02:40 | 34.92268 | 32.12609 | 6047 ft | 242 kts | 129° |
| 2026-05-07 02:40 | 34.91062 | 32.14025 | 5726 ft | 242 kts | 136° |
| 2026-05-07 02:40 | 34.89768 | 32.15353 | 5382 ft | 242 kts | 137° |
| 2026-05-07 02:41 | 34.88484 | 32.16676 | 5071 ft | 240 kts | 136° |
| 2026-05-07 02:41 | 34.87227 | 32.18009 | 4748 ft | 239 kts | 136° |
| 2026-05-07 02:41 | 34.85979 | 32.19347 | 4442 ft | 237 kts | 136° |
| 2026-05-07 02:41 | 34.84761 | 32.20655 | 4110 ft | 235 kts | 136° |
| 2026-05-07 02:42 | 34.83527 | 32.21982 | 3759 ft | 234 kts | 136° |
| 2026-05-07 02:42 | 34.82343 | 32.23253 | 3556 ft | 223 kts | 136° |
| 2026-05-07 02:42 | 34.81204 | 32.24473 | 3356 ft | 216 kts | 136° |
| 2026-05-07 02:42 | 34.80076 | 32.25683 | 3100 ft | 213 kts | 136° |
| 2026-05-07 02:43 | 34.78970 | 32.26871 | 2879 ft | 210 kts | 136° |
| 2026-05-07 02:43 | 34.77977 | 32.28133 | 2671 ft | 205 kts | 121° |
| 2026-05-07 02:43 | 34.77418 | 32.29663 | 2532 ft | 195 kts | 105° |
| 2026-05-07 02:43 | 34.77020 | 32.31222 | 2394 ft | 188 kts | 105° |
| 2026-05-07 02:44 | 34.76603 | 32.32700 | 2222 ft | 185 kts | 107° |
| 2026-05-07 02:44 | 34.76163 | 32.34166 | 2042 ft | 182 kts | 108° |
| 2026-05-07 02:44 | 34.75735 | 32.35578 | 1911 ft | 177 kts | 107° |
| 2026-05-07 02:44 | 34.75310 | 32.36985 | 1698 ft | 176 kts | 108° |
| 2026-05-07 02:45 | 34.74878 | 32.38371 | 1516 ft | 173 kts | 108° |
| 2026-05-07 02:45 | 34.74456 | 32.39738 | 1345 ft | 168 kts | 107° |
| 2026-05-07 02:45 | 34.74088 | 32.41015 | 1200 ft | 152 kts | 107° |
| 2026-05-07 02:45 | 34.73722 | 32.42187 | 986 ft | 148 kts | 108° |
| 2026-05-07 02:46 | 34.73370 | 32.43360 | 779 ft | 145 kts | 107° |
| 2026-05-07 02:46 | 34.73023 | 32.44505 | 570 ft | 144 kts | 109° |
| 2026-05-07 02:46 | 34.72686 | 32.45638 | 374 ft | 142 kts | 109° |
| 2026-05-07 02:46 | 34.72343 | 32.46741 | 152 ft | 140 kts | 107° |
| 2026-05-07 02:47 | 34.72012 | 32.47836 | 48 ft | 118 kts | 109° |
| 2026-05-07 02:47 | 34.71804 | 32.48523 | 45 ft | 59 kts | 111° |
| 2026-05-07 02:47 | 34.71715 | 32.48813 | 40 ft | 24 kts | 110° |
| 2026-05-07 02:47 | 34.71667 | 32.48969 | 38 ft | 13 kts | 110° |
| 2026-05-07 02:48 | 34.71598 | 32.48999 | 36 ft | 12 kts | 201° |
| 2026-05-07 02:48 | 34.71512 | 32.48946 | 32 ft | 14 kts | 236° |
| 2026-05-07 02:48 | 34.71466 | 32.48831 | 30 ft | 15 kts | 245° |
| 2026-05-07 02:48 | 34.71421 | 32.48711 | 28 ft | 16 kts | 245° |
| 2026-05-07 02:49 | 34.71388 | 32.48631 | 27 ft | 7 kts | 221° |
| 2026-05-07 02:49 | 34.71345 | 32.48644 | 27 ft | 5 kts | 153° |
| 2026-05-07 02:49 | 34.71316 | 32.48660 | 28 ft | 3 kts | 155° |
| 2026-05-07 02:49 | 34.71313 | 32.48661 | 28 ft | 0 kts | 155° |